createdAt,value
2017-02-21T00:00:45.182Z,996.1
2017-02-21T00:01:45.197Z,996.08
2017-02-21T00:02:45.231Z,996.06
2017-02-21T00:03:45.249Z,996.03
2017-02-21T00:04:45.280Z,996.1
2017-02-21T00:05:45.304Z,996.04
2017-02-21T00:06:45.331Z,996.07
2017-02-21T00:07:45.362Z,996.11
2017-02-21T00:08:45.403Z,996.11
2017-02-21T00:09:45.414Z,996.07
2017-02-21T00:10:45.461Z,996.09
2017-02-21T00:11:45.473Z,996.05
2017-02-21T00:12:45.749Z,996.04
2017-02-21T00:13:45.526Z,996.06
2017-02-21T00:14:45.572Z,995.99
2017-02-21T00:15:45.580Z,996.04
2017-02-21T00:16:45.626Z,996.01
2017-02-21T00:17:45.885Z,996
2017-02-21T00:18:45.662Z,995.98
2017-02-21T00:19:45.687Z,995.98
2017-02-21T00:20:45.716Z,995.95
2017-02-21T00:21:45.744Z,995.96
2017-02-21T00:22:46.024Z,995.95
2017-02-21T00:23:45.797Z,995.89
2017-02-21T00:24:45.825Z,995.95
2017-02-21T00:25:45.851Z,995.95
2017-02-21T00:26:45.887Z,995.94
2017-02-21T00:27:46.164Z,995.95
2017-02-21T00:28:45.950Z,995.93
2017-02-21T00:29:45.962Z,995.9
2017-02-21T00:30:46.004Z,995.85
2017-02-21T00:31:46.011Z,995.84
2017-02-21T00:32:46.296Z,995.82
2017-02-21T00:33:46.072Z,995.83
2017-02-21T00:34:46.115Z,995.89
2017-02-21T00:35:46.126Z,995.86
2017-02-21T00:36:46.151Z,995.88
2017-02-21T00:37:46.179Z,995.81
2017-02-21T00:38:46.230Z,995.79
2017-02-21T00:39:46.229Z,995.78
2017-02-21T00:40:46.279Z,995.81
2017-02-21T00:41:46.287Z,995.85
2017-02-21T00:42:46.328Z,995.84
2017-02-21T00:43:46.345Z,995.8
2017-02-21T00:44:46.406Z,995.75
2017-02-21T00:45:46.398Z,995.76
2017-02-21T00:46:46.444Z,995.71
2017-02-21T00:47:46.698Z,995.76
2017-02-21T00:48:46.497Z,995.75
2017-02-21T00:49:46.503Z,995.72
2017-02-21T00:50:46.545Z,995.72
2017-02-21T00:51:46.563Z,995.67
2017-02-21T00:52:46.587Z,995.71
2017-02-21T00:53:46.617Z,995.74
2017-02-21T00:54:46.636Z,995.71
2017-02-21T00:55:46.668Z,995.66
2017-02-21T00:56:46.697Z,995.68
2017-02-21T00:57:46.722Z,995.68
2017-02-21T00:58:46.759Z,995.66
2017-02-21T00:59:46.777Z,995.67
2017-02-21T01:00:46.804Z,995.6
2017-02-21T01:01:46.834Z,995.63
2017-02-21T01:02:46.861Z,995.69
2017-02-21T01:03:46.888Z,995.64
2017-02-21T01:04:46.912Z,995.61
2017-02-21T01:05:46.941Z,995.62
2017-02-21T01:06:46.969Z,995.61
2017-02-21T01:07:46.991Z,995.64
2017-02-21T01:08:47.020Z,995.62
2017-02-21T01:09:47.056Z,995.63
2017-02-21T01:10:47.095Z,995.57
2017-02-21T01:11:47.107Z,995.59
2017-02-21T01:12:47.160Z,995.59
2017-02-21T01:13:47.159Z,995.64
2017-02-21T01:14:47.200Z,995.56
2017-02-21T01:15:47.213Z,995.52
2017-02-21T01:16:47.247Z,995.5
2017-02-21T01:17:47.270Z,995.45
2017-02-21T01:18:47.314Z,995.46
2017-02-21T01:19:47.324Z,995.45
2017-02-21T01:20:47.370Z,995.48
2017-02-21T01:21:47.380Z,995.49
2017-02-21T01:22:47.423Z,995.45
2017-02-21T01:23:47.433Z,995.43
2017-02-21T01:24:47.477Z,995.45
2017-02-21T01:25:47.481Z,995.42
2017-02-21T01:26:48.163Z,995.4
2017-02-21T01:27:47.542Z,995.46
2017-02-21T01:28:47.585Z,995.46
2017-02-21T01:32:02.836Z,995.34
2017-02-21T01:33:02.849Z,995.31
2017-02-21T01:34:02.879Z,995.31
2017-02-21T01:35:02.902Z,995.32
2017-02-21T01:36:02.932Z,995.27
2017-02-21T01:37:03.207Z,995.32
2017-02-21T01:38:02.986Z,995.32
2017-02-21T01:39:03.010Z,995.31
2017-02-21T01:40:03.038Z,995.31
2017-02-21T01:41:03.067Z,995.27
2017-02-21T01:42:03.092Z,995.27
2017-02-21T01:43:03.121Z,995.24
2017-02-21T01:44:03.146Z,995.27
2017-02-21T01:45:03.175Z,995.19
2017-02-21T01:46:03.199Z,995.19
2017-02-21T01:47:03.227Z,995.17
2017-02-21T01:48:03.257Z,995.08
2017-02-21T01:49:03.281Z,995.15
2017-02-21T01:50:03.309Z,995.09
2017-02-21T01:51:03.334Z,995.02
2017-02-21T01:52:03.364Z,995.07
2017-02-21T01:53:03.388Z,995.06
2017-02-21T01:54:03.418Z,995.06
2017-02-21T01:55:03.444Z,995.04
2017-02-21T01:56:03.471Z,995.04
2017-02-21T01:57:03.515Z,995.03
2017-02-21T01:58:03.528Z,994.98
2017-02-21T01:59:03.552Z,994.98
2017-02-21T02:00:03.582Z,994.93
2017-02-21T02:01:03.603Z,994.89
2017-02-21T02:02:03.635Z,994.87
2017-02-21T02:03:03.660Z,994.92
2017-02-21T02:04:03.688Z,994.87
2017-02-21T02:05:03.719Z,994.87
2017-02-21T02:06:03.743Z,994.94
2017-02-21T02:07:03.770Z,994.89
2017-02-21T02:08:03.796Z,994.93
2017-02-21T02:09:03.824Z,994.91
2017-02-21T02:10:03.849Z,994.89
2017-02-21T02:11:03.874Z,994.87
2017-02-21T02:12:03.907Z,994.87
2017-02-21T02:13:03.932Z,994.81
2017-02-21T02:14:03.960Z,994.86
2017-02-21T02:15:04.007Z,994.85
2017-02-21T02:16:04.010Z,994.84
2017-02-21T02:17:04.041Z,994.88
2017-02-21T02:18:04.068Z,994.88
2017-02-21T02:19:04.096Z,994.83
2017-02-21T02:20:04.121Z,994.82
2017-02-21T02:21:04.150Z,994.82
2017-02-21T02:22:04.178Z,994.77
2017-02-21T02:23:04.203Z,994.81
2017-02-21T02:24:04.233Z,994.78
2017-02-21T02:25:04.256Z,994.76
2017-02-21T02:26:04.285Z,994.75
2017-02-21T02:27:04.310Z,994.72
2017-02-21T02:28:04.339Z,994.72
2017-02-21T02:29:04.365Z,994.73
2017-02-21T02:30:04.392Z,994.73
2017-02-21T02:31:04.421Z,994.7
2017-02-21T02:32:04.446Z,994.76
2017-02-21T02:33:04.474Z,994.71
2017-02-21T02:34:04.499Z,994.69
2017-02-21T02:35:04.528Z,994.73
2017-02-21T02:36:04.556Z,994.7
2017-02-21T02:37:04.577Z,994.68
2017-02-21T02:38:04.610Z,994.69
2017-02-21T02:39:04.635Z,994.61
2017-02-21T02:40:04.663Z,994.61
2017-02-21T02:41:04.688Z,994.59
2017-02-21T02:42:04.717Z,994.58
2017-02-21T02:43:04.997Z,994.6
2017-02-21T02:44:04.770Z,994.52
2017-02-21T02:45:04.800Z,994.5
2017-02-21T02:46:04.823Z,994.53
2017-02-21T02:47:04.853Z,994.49
2017-02-21T02:48:05.129Z,994.48
2017-02-21T02:49:04.906Z,994.54
2017-02-21T02:50:04.937Z,994.5
2017-02-21T02:51:04.960Z,994.51
2017-02-21T02:52:04.985Z,994.57
2017-02-21T02:53:05.265Z,994.52
2017-02-21T02:54:05.037Z,994.49
2017-02-21T02:55:05.069Z,994.45
2017-02-21T02:56:05.095Z,994.47
2017-02-21T02:57:05.124Z,994.47
2017-02-21T02:58:05.152Z,994.49
2017-02-21T02:59:05.177Z,994.49
2017-02-21T03:00:05.207Z,994.48
2017-02-21T03:01:05.229Z,994.43
2017-02-21T03:02:05.259Z,994.46
2017-02-21T03:03:05.284Z,994.39
2017-02-21T03:04:05.313Z,994.4
2017-02-21T03:05:05.341Z,994.4
2017-02-21T03:06:05.367Z,994.36
2017-02-21T03:07:05.396Z,994.39
2017-02-21T03:08:05.420Z,994.38
2017-02-21T03:09:05.448Z,994.41
2017-02-21T03:10:05.498Z,994.4
2017-02-21T03:11:05.500Z,994.32
2017-02-21T03:12:05.533Z,994.31
2017-02-21T03:13:05.555Z,994.35
2017-02-21T03:14:05.584Z,994.29
2017-02-21T03:15:05.609Z,994.27
2017-02-21T03:16:05.633Z,994.3
2017-02-21T03:17:05.663Z,994.3
2017-02-21T03:18:05.687Z,994.31
2017-02-21T03:19:05.720Z,994.3
2017-02-21T03:20:05.745Z,994.26
2017-02-21T03:21:05.774Z,994.25
2017-02-21T03:22:05.801Z,994.32
2017-02-21T03:23:05.824Z,994.26
2017-02-21T03:24:05.855Z,994.26
2017-02-21T03:25:05.880Z,994.32
2017-02-21T03:26:05.909Z,994.25
2017-02-21T03:27:05.934Z,994.22
2017-02-21T03:28:05.963Z,994.23
2017-02-21T03:29:05.987Z,994.21
2017-02-21T03:30:06.015Z,994.19
2017-02-21T03:31:06.041Z,994.2
2017-02-21T03:32:06.069Z,994.19
2017-02-21T03:33:06.100Z,994.16
2017-02-21T03:34:06.122Z,994.22
2017-02-21T03:35:06.151Z,994.2
2017-02-21T03:36:06.176Z,994.21
2017-02-21T03:37:06.238Z,994.16
2017-02-21T03:38:06.228Z,994.13
2017-02-21T03:39:06.258Z,994.08
2017-02-21T03:40:06.282Z,994.07
2017-02-21T03:41:06.312Z,994.09
2017-02-21T03:42:06.340Z,994.11
2017-02-21T03:43:06.363Z,994.07
2017-02-21T03:44:06.395Z,994.1
2017-02-21T03:45:06.419Z,994.09
2017-02-21T03:46:06.448Z,994.14
2017-02-21T03:47:06.472Z,994.12
2017-02-21T03:48:06.506Z,994.08
2017-02-21T03:49:06.530Z,994.1
2017-02-21T03:50:06.555Z,994.05
2017-02-21T03:51:06.579Z,993.99
2017-02-21T03:52:06.608Z,994.03
2017-02-21T03:53:06.638Z,993.97
2017-02-21T03:54:06.665Z,993.97
2017-02-21T03:55:06.691Z,993.98
2017-02-21T03:56:06.716Z,993.98
2017-02-21T03:57:06.744Z,993.97
2017-02-21T03:58:06.772Z,993.99
2017-02-21T03:59:06.793Z,993.94
2017-02-21T04:00:06.826Z,993.97
2017-02-21T04:01:06.851Z,993.91
2017-02-21T04:02:06.879Z,993.97
2017-02-21T04:03:06.905Z,993.98
2017-02-21T04:04:07.189Z,993.89
2017-02-21T04:05:06.960Z,993.91
2017-02-21T04:06:06.991Z,993.96
2017-02-21T04:07:07.016Z,993.91
2017-02-21T04:08:07.040Z,993.9
2017-02-21T04:09:07.069Z,993.95
2017-02-21T04:10:07.094Z,993.93
2017-02-21T04:11:07.122Z,993.91
2017-02-21T04:12:07.147Z,993.97
2017-02-21T04:13:07.177Z,993.95
2017-02-21T04:14:07.205Z,993.97
2017-02-21T04:15:07.229Z,993.92
2017-02-21T04:16:07.258Z,993.95
2017-02-21T04:17:07.282Z,993.94
2017-02-21T04:18:07.311Z,993.92
2017-02-21T04:19:07.341Z,993.9
2017-02-21T04:20:07.361Z,993.93
2017-02-21T04:21:07.394Z,993.93
2017-02-21T04:22:07.417Z,993.91
2017-02-21T04:23:07.448Z,993.96
2017-02-21T04:24:07.470Z,993.94
2017-02-21T04:25:07.494Z,993.94
2017-02-21T04:26:07.526Z,993.92
2017-02-21T04:27:07.553Z,993.98
2017-02-21T04:28:07.579Z,993.97
2017-02-21T04:29:07.604Z,993.98
2017-02-21T04:30:07.636Z,993.95
2017-02-21T04:31:07.673Z,993.91
2017-02-21T04:32:07.690Z,993.91
2017-02-21T04:33:07.715Z,993.9
2017-02-21T04:34:07.743Z,993.89
2017-02-21T04:35:07.773Z,993.88
2017-02-21T04:36:07.797Z,993.88
2017-02-21T04:37:07.826Z,993.88
2017-02-21T04:38:07.851Z,993.88
2017-02-21T04:39:07.879Z,993.87
2017-02-21T04:40:07.904Z,993.86
2017-02-21T04:41:07.932Z,993.83
2017-02-21T04:42:07.961Z,993.86
2017-02-21T04:43:07.988Z,993.88
2017-02-21T04:44:08.012Z,993.84
2017-02-21T04:45:08.042Z,993.88
2017-02-21T04:46:08.068Z,993.9
2017-02-21T04:47:08.093Z,993.93
2017-02-21T04:48:08.123Z,993.98
2017-02-21T04:49:08.148Z,993.99
2017-02-21T04:50:08.176Z,994.02
2017-02-21T04:51:08.204Z,994.01
2017-02-21T04:52:08.229Z,994
2017-02-21T04:53:08.258Z,994
2017-02-21T04:54:08.284Z,993.99
2017-02-21T04:55:08.312Z,993.96
2017-02-21T04:56:08.338Z,993.94
2017-02-21T04:57:08.361Z,993.93
2017-02-21T04:58:08.391Z,993.91
2017-02-21T04:59:08.420Z,993.87
2017-02-21T05:00:08.445Z,993.91
2017-02-21T05:01:08.473Z,993.83
2017-02-21T05:02:08.502Z,993.84
2017-02-21T05:03:08.526Z,993.84
2017-02-21T05:04:08.554Z,993.83
2017-02-21T05:05:08.579Z,993.78
2017-02-21T05:06:08.603Z,993.81
2017-02-21T05:07:08.634Z,993.8
2017-02-21T05:08:08.662Z,993.8
2017-02-21T05:09:08.690Z,993.8
2017-02-21T05:10:08.716Z,993.82
2017-02-21T05:11:08.744Z,993.77
2017-02-21T05:12:08.768Z,993.74
2017-02-21T05:13:08.798Z,993.77
2017-02-21T05:14:08.822Z,993.74
2017-02-21T05:15:08.851Z,993.83
2017-02-21T05:16:08.876Z,993.78
2017-02-21T05:17:08.904Z,993.84
2017-02-21T05:18:08.930Z,993.79
2017-02-21T05:19:08.961Z,993.77
2017-02-21T05:20:08.987Z,993.76
2017-02-21T05:21:09.012Z,993.8
2017-02-21T05:22:09.041Z,993.77
2017-02-21T05:23:09.065Z,993.81
2017-02-21T05:24:09.095Z,993.85
2017-02-21T05:25:09.119Z,993.84
2017-02-21T05:26:09.147Z,993.83
2017-02-21T05:27:09.172Z,993.82
2017-02-21T05:28:09.201Z,993.9
2017-02-21T05:29:09.226Z,993.85
2017-02-21T05:30:09.254Z,993.85
2017-02-21T05:31:09.284Z,993.87
2017-02-21T05:32:09.303Z,993.88
2017-02-21T05:33:09.339Z,993.85
2017-02-21T05:34:09.417Z,993.89
2017-02-21T05:35:09.390Z,993.88
2017-02-21T05:36:09.415Z,993.91
2017-02-21T05:37:09.440Z,993.87
2017-02-21T05:38:09.472Z,993.87
2017-02-21T05:39:09.497Z,993.9
2017-02-21T05:40:09.525Z,993.89
2017-02-21T05:41:09.551Z,993.92
2017-02-21T05:42:09.580Z,993.9
2017-02-21T05:43:09.604Z,993.93
2017-02-21T05:44:09.626Z,993.89
2017-02-21T05:45:09.658Z,993.92
2017-02-21T05:46:09.687Z,993.96
2017-02-21T05:47:09.707Z,993.97
2017-02-21T05:48:09.767Z,993.94
2017-02-21T05:49:09.769Z,993.94
2017-02-21T05:50:09.794Z,993.96
2017-02-21T05:51:09.822Z,993.96
2017-02-21T05:52:09.846Z,993.94
2017-02-21T05:53:09.879Z,993.94
2017-02-21T05:54:09.901Z,993.99
2017-02-21T05:55:09.930Z,993.98
2017-02-21T05:56:09.958Z,994.01
2017-02-21T05:57:09.983Z,994
2017-02-21T05:58:10.007Z,993.99
2017-02-21T05:59:10.037Z,994.02
2017-02-21T06:00:10.066Z,994.05
2017-02-21T06:01:10.094Z,994.09
2017-02-21T06:02:10.118Z,994.02
2017-02-21T06:03:10.144Z,994.04
2017-02-21T06:04:10.172Z,994.06
2017-02-21T06:05:10.197Z,994.11
2017-02-21T06:06:10.230Z,994.07
2017-02-21T06:07:10.253Z,994.08
2017-02-21T06:08:10.278Z,994.12
2017-02-21T06:09:10.309Z,994.07
2017-02-21T06:10:10.337Z,994.07
2017-02-21T06:11:10.365Z,994.08
2017-02-21T06:12:10.391Z,994.06
2017-02-21T06:13:10.415Z,994.04
2017-02-21T06:14:10.443Z,993.98
2017-02-21T06:15:10.724Z,994.01
2017-02-21T06:16:10.497Z,993.96
2017-02-21T06:17:10.526Z,993.96
2017-02-21T06:18:10.555Z,993.94
2017-02-21T06:19:10.579Z,993.89
2017-02-21T06:20:10.859Z,993.95
2017-02-21T06:21:10.633Z,993.92
2017-02-21T06:22:10.661Z,993.9
2017-02-21T06:23:10.691Z,993.94
2017-02-21T06:24:10.715Z,993.93
2017-02-21T06:25:10.996Z,993.95
2017-02-21T06:26:10.775Z,993.95
2017-02-21T06:27:10.798Z,993.95
2017-02-21T06:28:10.827Z,993.95
2017-02-21T06:29:10.856Z,994.03
2017-02-21T06:30:11.132Z,994.02
2017-02-21T06:31:10.909Z,994.02
2017-02-21T06:32:10.934Z,994.04
2017-02-21T06:33:10.963Z,994.08
2017-02-21T06:34:10.991Z,994.07
2017-02-21T06:35:11.267Z,994.08
2017-02-21T06:36:11.046Z,994.14
2017-02-21T06:37:11.070Z,994.1
2017-02-21T06:38:11.098Z,994.21
2017-02-21T06:39:11.127Z,994.19
2017-02-21T06:40:11.148Z,994.16
2017-02-21T06:41:11.180Z,994.12
2017-02-21T06:42:11.205Z,994.12
2017-02-21T06:43:11.234Z,994.15
2017-02-21T06:44:11.258Z,994.16
2017-02-21T06:45:11.287Z,994.2
2017-02-21T06:46:11.316Z,994.23
2017-02-21T06:47:11.345Z,994.31
2017-02-21T06:48:11.370Z,994.29
2017-02-21T06:49:11.394Z,994.31
2017-02-21T06:50:11.424Z,994.29
2017-02-21T06:51:11.452Z,994.32
2017-02-21T06:52:11.481Z,994.36
2017-02-21T06:53:11.502Z,994.37
2017-02-21T06:54:11.534Z,994.33
2017-02-21T06:55:11.563Z,994.33
2017-02-21T06:56:11.587Z,994.33
2017-02-21T06:57:11.618Z,994.33
2017-02-21T06:58:11.644Z,994.33
2017-02-21T06:59:11.666Z,994.33
2017-02-21T07:00:11.699Z,994.35
2017-02-21T07:01:11.728Z,994.33
2017-02-21T07:02:11.751Z,994.39
2017-02-21T07:03:11.781Z,994.36
2017-02-21T07:04:11.806Z,994.37
2017-02-21T07:05:11.834Z,994.35
2017-02-21T07:06:11.866Z,994.38
2017-02-21T07:07:11.891Z,994.34
2017-02-21T07:08:11.910Z,994.4
2017-02-21T07:09:11.940Z,994.39
2017-02-21T07:10:11.975Z,994.41
2017-02-21T07:11:12.008Z,994.37
2017-02-21T07:12:12.028Z,994.41
2017-02-21T07:13:12.051Z,994.39
2017-02-21T07:14:12.082Z,994.44
2017-02-21T07:15:12.110Z,994.46
2017-02-21T07:16:12.135Z,994.49
2017-02-21T07:17:12.163Z,994.46
2017-02-21T07:18:12.191Z,994.48
2017-02-21T07:19:12.217Z,994.53
2017-02-21T07:20:12.247Z,994.45
2017-02-21T07:21:12.270Z,994.48
2017-02-21T07:22:12.300Z,994.54
2017-02-21T07:23:12.328Z,994.5
2017-02-21T07:24:12.357Z,994.49
2017-02-21T07:25:12.385Z,994.57
2017-02-21T07:26:12.410Z,994.54
2017-02-21T07:27:12.435Z,994.6
2017-02-21T07:28:12.463Z,994.57
2017-02-21T07:29:12.492Z,994.58
2017-02-21T07:30:12.524Z,994.57
2017-02-21T07:31:12.545Z,994.57
2017-02-21T07:32:12.577Z,994.58
2017-02-21T07:33:12.604Z,994.59
2017-02-21T07:34:12.627Z,994.57
2017-02-21T07:35:12.656Z,994.54
2017-02-21T07:36:12.686Z,994.57
2017-02-21T07:37:12.712Z,994.59
2017-02-21T07:38:12.738Z,994.55
2017-02-21T07:39:12.768Z,994.55
2017-02-21T07:40:12.796Z,994.56
2017-02-21T07:41:12.820Z,994.59
2017-02-21T07:42:12.849Z,994.57
2017-02-21T07:43:12.879Z,994.59
2017-02-21T07:44:12.904Z,994.61
2017-02-21T07:45:12.931Z,994.53
2017-02-21T07:46:12.963Z,994.6
2017-02-21T07:47:12.989Z,994.58
2017-02-21T07:48:13.016Z,994.66
2017-02-21T07:49:13.077Z,994.62
2017-02-21T07:50:13.073Z,994.65
2017-02-21T07:51:13.096Z,994.66
2017-02-21T07:52:13.125Z,994.66
2017-02-21T07:53:13.153Z,994.71
2017-02-21T07:54:13.178Z,994.72
2017-02-21T07:55:13.209Z,994.64
2017-02-21T07:56:13.236Z,994.69
2017-02-21T07:57:13.262Z,994.69
2017-02-21T07:58:13.291Z,994.64
2017-02-21T07:59:13.319Z,994.68
2017-02-21T08:00:13.344Z,994.68
2017-02-21T08:01:13.373Z,994.58
2017-02-21T08:02:13.402Z,994.71
2017-02-21T08:03:13.425Z,994.76
2017-02-21T08:04:13.455Z,994.73
2017-02-21T08:05:13.483Z,994.67
2017-02-21T08:06:13.507Z,994.73
2017-02-21T08:07:13.537Z,994.7
2017-02-21T08:08:13.566Z,994.81
2017-02-21T08:09:13.595Z,994.71
2017-02-21T08:10:13.622Z,994.82
2017-02-21T08:11:13.649Z,994.79
2017-02-21T08:12:13.677Z,994.82
2017-02-21T08:13:13.701Z,994.78
2017-02-21T08:14:13.730Z,994.91
2017-02-21T08:15:13.760Z,994.83
2017-02-21T08:16:13.784Z,994.88
2017-02-21T08:17:13.813Z,994.8
2017-02-21T08:18:13.843Z,994.77
2017-02-21T08:19:13.865Z,994.8
2017-02-21T08:20:13.892Z,994.83
2017-02-21T08:21:13.924Z,994.86
2017-02-21T08:22:13.947Z,994.83
2017-02-21T08:23:13.976Z,994.84
2017-02-21T08:24:14.006Z,994.87
2017-02-21T08:25:14.035Z,994.81
2017-02-21T08:26:14.311Z,994.83
2017-02-21T08:27:14.088Z,994.86
2017-02-21T08:28:14.137Z,994.93
2017-02-21T08:29:14.141Z,994.86
2017-02-21T08:30:14.165Z,994.9
2017-02-21T08:31:14.199Z,994.89
2017-02-21T08:32:14.224Z,994.9
2017-02-21T08:33:14.251Z,994.91
2017-02-21T08:34:14.284Z,994.95
2017-02-21T08:35:14.305Z,994.88
2017-02-21T08:36:14.333Z,994.88
2017-02-21T08:37:14.360Z,994.86
2017-02-21T08:38:14.392Z,994.82
2017-02-21T08:39:14.416Z,994.89
2017-02-21T08:40:14.440Z,994.9
2017-02-21T08:41:14.473Z,994.93
2017-02-21T08:42:14.498Z,994.88
2017-02-21T08:43:14.527Z,994.88
2017-02-21T08:44:14.556Z,994.9
2017-02-21T08:45:14.581Z,994.86
2017-02-21T08:46:14.609Z,994.85
2017-02-21T08:47:14.637Z,994.87
2017-02-21T08:48:14.662Z,994.9
2017-02-21T08:49:14.690Z,994.89
2017-02-21T08:50:14.720Z,994.94
2017-02-21T08:51:14.744Z,994.94
2017-02-21T08:52:14.775Z,994.98
2017-02-21T08:53:14.804Z,995
2017-02-21T08:54:14.824Z,995.01
2017-02-21T08:55:14.855Z,994.98
2017-02-21T08:56:14.885Z,994.99
2017-02-21T08:57:14.909Z,995.03
2017-02-21T08:58:14.941Z,995
2017-02-21T08:59:14.966Z,995.02
2017-02-21T09:00:14.995Z,995.03
2017-02-21T09:01:15.016Z,995.07
2017-02-21T09:02:15.048Z,995.09
2017-02-21T09:03:15.077Z,995.06
2017-02-21T09:04:15.100Z,995.16
2017-02-21T09:05:15.127Z,995.08
2017-02-21T09:06:15.163Z,995.1
2017-02-21T09:07:15.184Z,995.12
2017-02-21T09:08:15.212Z,995.17
2017-02-21T09:09:15.237Z,995.14
2017-02-21T09:10:15.267Z,995.17
2017-02-21T09:11:15.291Z,995.11
2017-02-21T09:12:15.320Z,995.07
2017-02-21T09:13:15.347Z,995.05
2017-02-21T09:14:15.375Z,995.09
2017-02-21T09:15:15.402Z,995.08
2017-02-21T09:16:15.430Z,995.05
2017-02-21T09:17:15.459Z,995.14
2017-02-21T09:18:15.488Z,995.13
2017-02-21T09:19:15.513Z,995.1
2017-02-21T09:20:15.541Z,995.13
2017-02-21T09:21:15.570Z,995.06
2017-02-21T09:22:15.595Z,995.12
2017-02-21T09:23:15.623Z,995.17
2017-02-21T09:24:15.652Z,995.17
2017-02-21T09:25:15.676Z,995.08
2017-02-21T09:26:15.705Z,995.07
2017-02-21T09:27:15.734Z,995.17
2017-02-21T09:28:15.763Z,995.18
2017-02-21T09:29:15.788Z,995.1
2017-02-21T09:30:15.816Z,995.2
2017-02-21T09:31:15.841Z,995.17
2017-02-21T09:32:16.121Z,995.16
2017-02-21T09:33:15.895Z,995.19
2017-02-21T09:34:15.922Z,995.13
2017-02-21T09:35:15.952Z,995.16
2017-02-21T09:36:15.981Z,995.21
2017-02-21T09:37:16.257Z,995.23
2017-02-21T09:38:16.033Z,995.15
2017-02-21T09:39:16.062Z,995.21
2017-02-21T09:40:16.088Z,995.26
2017-02-21T09:41:16.116Z,995.27
2017-02-21T09:42:16.145Z,995.23
2017-02-21T09:43:16.170Z,995.23
2017-02-21T09:44:16.199Z,995.16
2017-02-21T09:45:16.231Z,995.19
2017-02-21T09:46:16.252Z,995.14
2017-02-21T09:47:16.281Z,995.17
2017-02-21T09:48:16.306Z,995.14
2017-02-21T09:49:16.335Z,995.24
2017-02-21T09:50:16.363Z,995.22
2017-02-21T09:51:16.386Z,995.28
2017-02-21T09:52:16.416Z,995.27
2017-02-21T09:53:16.445Z,995.28
2017-02-21T09:54:16.474Z,995.3
2017-02-21T09:55:16.498Z,995.31
2017-02-21T09:56:16.519Z,995.3
2017-02-21T09:57:16.552Z,995.29
2017-02-21T09:58:16.606Z,995.31
2017-02-21T09:59:16.603Z,995.36
2017-02-21T10:00:16.634Z,995.34
2017-02-21T10:01:16.658Z,995.36
2017-02-21T10:02:16.688Z,995.44
2017-02-21T10:03:16.712Z,995.37
2017-02-21T10:04:16.739Z,995.41
2017-02-21T10:05:16.769Z,995.37
2017-02-21T10:06:16.794Z,995.46
2017-02-21T10:07:16.822Z,995.4
2017-02-21T10:08:16.847Z,995.39
2017-02-21T10:09:16.875Z,995.48
2017-02-21T10:10:16.903Z,995.47
2017-02-21T10:11:16.926Z,995.52
2017-02-21T10:12:16.956Z,995.46
2017-02-21T10:13:16.984Z,995.45
2017-02-21T10:14:17.013Z,995.43
2017-02-21T10:15:17.038Z,995.5
2017-02-21T10:16:17.065Z,995.49
2017-02-21T10:17:17.086Z,995.45
2017-02-21T10:18:17.122Z,995.49
2017-02-21T10:19:17.144Z,995.55
2017-02-21T10:20:17.172Z,995.48
2017-02-21T10:21:17.197Z,995.5
2017-02-21T10:22:17.226Z,995.5
2017-02-21T10:23:17.251Z,995.49
2017-02-21T10:24:17.280Z,995.47
2017-02-21T10:25:17.305Z,995.41
2017-02-21T10:26:17.333Z,995.38
2017-02-21T10:27:17.353Z,995.37
2017-02-21T10:28:17.385Z,995.35
2017-02-21T10:29:17.415Z,995.39
2017-02-21T10:30:17.441Z,995.43
2017-02-21T10:31:17.469Z,995.4
2017-02-21T10:32:17.494Z,995.42
2017-02-21T10:33:17.523Z,995.34
2017-02-21T10:34:17.552Z,995.38
2017-02-21T10:35:17.580Z,995.39
2017-02-21T10:36:17.601Z,995.41
2017-02-21T10:37:17.626Z,995.45
2017-02-21T10:38:17.659Z,995.52
2017-02-21T10:39:17.683Z,995.51
2017-02-21T10:40:17.707Z,995.5
2017-02-21T10:41:17.737Z,995.54
2017-02-21T10:42:17.765Z,995.54
2017-02-21T10:43:17.793Z,995.51
2017-02-21T10:44:17.822Z,995.57
2017-02-21T10:45:17.846Z,995.61
2017-02-21T10:46:17.874Z,995.61
2017-02-21T10:47:17.902Z,995.62
2017-02-21T10:48:17.930Z,995.62
2017-02-21T10:49:17.956Z,995.61
2017-02-21T10:50:17.981Z,995.67
2017-02-21T10:51:18.004Z,995.66
2017-02-21T10:52:18.038Z,995.66
2017-02-21T10:53:18.062Z,995.62
2017-02-21T10:54:18.091Z,995.64
2017-02-21T10:55:18.116Z,995.59
2017-02-21T10:56:18.145Z,995.68
2017-02-21T10:57:18.174Z,995.66
2017-02-21T10:58:18.449Z,995.61
2017-02-21T10:59:18.228Z,995.65
2017-02-21T11:00:18.256Z,995.62
2017-02-21T11:01:18.283Z,995.63
2017-02-21T11:02:18.309Z,995.65
2017-02-21T11:03:18.581Z,995.59
2017-02-21T11:04:18.363Z,995.67
2017-02-21T11:05:18.388Z,995.65
2017-02-21T11:06:18.416Z,995.59
2017-02-21T11:07:18.441Z,995.58
2017-02-21T11:08:18.721Z,995.62
2017-02-21T11:09:18.503Z,995.59
2017-02-21T11:10:18.538Z,995.58
2017-02-21T11:11:18.553Z,995.55
2017-02-21T11:12:18.579Z,995.59
2017-02-21T11:13:18.858Z,995.62
2017-02-21T11:14:18.635Z,995.62
2017-02-21T11:15:18.664Z,995.62
2017-02-21T11:16:18.689Z,995.65
2017-02-21T11:17:18.713Z,995.7
2017-02-21T11:18:18.992Z,995.72
2017-02-21T11:19:18.772Z,995.64
2017-02-21T11:20:18.800Z,995.68
2017-02-21T11:21:18.825Z,995.65
2017-02-21T11:22:18.853Z,995.64
2017-02-21T11:23:19.134Z,995.66
2017-02-21T11:24:18.908Z,995.61
2017-02-21T11:25:18.966Z,995.67
2017-02-21T11:26:18.961Z,995.65
2017-02-21T11:27:18.990Z,995.6
2017-02-21T11:28:19.265Z,995.59
2017-02-21T11:29:19.048Z,995.63
2017-02-21T11:30:19.081Z,995.57
2017-02-21T11:31:19.101Z,995.59
2017-02-21T11:32:19.130Z,995.62
2017-02-21T11:33:19.406Z,995.6
2017-02-21T11:34:19.183Z,995.63
2017-02-21T11:35:19.210Z,995.61
2017-02-21T11:36:19.237Z,995.62
2017-02-21T11:37:19.262Z,995.6
2017-02-21T11:38:19.289Z,995.66
2017-02-21T11:39:19.315Z,995.65
2017-02-21T11:40:19.346Z,995.64
2017-02-21T11:41:19.373Z,995.63
2017-02-21T11:42:19.402Z,995.59
2017-02-21T11:43:19.427Z,995.63
2017-02-21T11:44:19.456Z,995.66
2017-02-21T11:45:19.480Z,995.61
2017-02-21T11:46:19.509Z,995.64
2017-02-21T11:47:19.534Z,995.57
2017-02-21T11:48:19.562Z,995.52
2017-02-21T11:49:19.591Z,995.52
2017-02-21T11:50:19.615Z,995.61
2017-02-21T11:51:19.644Z,995.65
2017-02-21T11:52:19.673Z,995.57
2017-02-21T11:53:19.697Z,995.53
2017-02-21T11:54:19.726Z,995.48
2017-02-21T11:55:19.756Z,995.48
2017-02-21T11:56:19.781Z,995.45
2017-02-21T11:57:19.810Z,995.42
2017-02-21T11:58:19.838Z,995.49
2017-02-21T11:59:19.859Z,995.43
2017-02-21T12:00:19.892Z,995.49
2017-02-21T12:01:19.918Z,995.42
2017-02-21T12:02:19.945Z,995.39
2017-02-21T12:03:19.974Z,995.4
2017-02-21T12:04:19.999Z,995.4
2017-02-21T12:05:20.028Z,995.41
2017-02-21T12:06:20.055Z,995.4
2017-02-21T12:07:20.082Z,995.36
2017-02-21T12:08:20.110Z,995.38
2017-02-21T12:09:20.135Z,995.32
2017-02-21T12:10:20.168Z,995.37
2017-02-21T12:11:20.193Z,995.33
2017-02-21T12:12:20.224Z,995.37
2017-02-21T12:13:20.247Z,995.31
2017-02-21T12:14:20.275Z,995.31
2017-02-21T12:15:20.304Z,995.35
2017-02-21T12:16:20.328Z,995.37
2017-02-21T12:17:20.357Z,995.35
2017-02-21T12:18:20.386Z,995.31
2017-02-21T12:19:20.410Z,995.34
2017-02-21T12:20:20.439Z,995.31
2017-02-21T12:21:20.468Z,995.32
2017-02-21T12:22:20.493Z,995.28
2017-02-21T12:23:20.523Z,995.33
2017-02-21T12:24:20.551Z,995.36
2017-02-21T12:25:20.580Z,995.32
2017-02-21T12:26:20.604Z,995.34
2017-02-21T12:27:20.634Z,995.3
2017-02-21T12:28:20.659Z,995.29
2017-02-21T12:29:20.683Z,995.32
2017-02-21T12:30:20.715Z,995.26
2017-02-21T12:31:20.745Z,995.32
2017-02-21T12:32:20.774Z,995.2
2017-02-21T12:33:20.797Z,995.32
2017-02-21T12:34:20.823Z,995.22